createdAt,value
2022-08-30T00:02:50.594Z,14.00
2022-08-30T00:05:19.084Z,14.20
2022-08-30T00:07:47.276Z,14.40
2022-08-30T00:10:16.812Z,13.60
2022-08-30T00:12:45.000Z,14.90
2022-08-30T00:15:14.005Z,14.40
2022-08-30T00:17:43.607Z,13.60
2022-08-30T00:20:16.565Z,13.60
2022-08-30T00:22:44.994Z,14.20
2022-08-30T00:25:18.181Z,13.60
2022-08-30T00:27:46.540Z,14.10
2022-08-30T00:30:17.357Z,14.10
2022-08-30T00:32:45.788Z,13.40
2022-08-30T00:35:20.600Z,11.70
2022-08-30T00:37:50.911Z,12.90
2022-08-30T00:40:27.192Z,12.60
2022-08-30T00:43:13.932Z,11.80
2022-08-30T00:45:42.521Z,12.50
2022-08-30T00:48:10.709Z,12.10
2022-08-30T00:50:48.304Z,11.10
2022-08-30T00:53:23.584Z,11.80
2022-08-30T00:55:54.075Z,11.40
2022-08-30T00:58:32.273Z,12.30
2022-08-30T01:01:01.876Z,11.70
2022-08-30T01:03:31.181Z,11.50
2022-08-30T01:06:00.107Z,11.30
2022-08-30T01:08:28.945Z,11.30
2022-08-30T01:10:58.048Z,11.00
2022-08-30T01:13:28.206Z,11.50
2022-08-30T01:15:56.953Z,11.90
2022-08-30T01:18:25.768Z,11.10
2022-08-30T01:21:18.016Z,11.50
2022-08-30T01:23:50.343Z,11.20
2022-08-30T01:28:55.964Z,10.50
2022-08-30T01:31:24.405Z,11.00
2022-08-30T01:33:52.669Z,11.60
2022-08-30T01:36:21.291Z,11.40
2022-08-30T01:38:57.159Z,11.20
2022-08-30T01:41:35.596Z,11.30
2022-08-30T01:44:08.960Z,11.20
2022-08-30T01:46:43.781Z,11.10
2022-08-30T01:49:16.193Z,11.10
2022-08-30T01:51:44.428Z,11.40
2022-08-30T01:54:12.749Z,10.80
2022-08-30T01:56:40.973Z,11.20
2022-08-30T01:59:09.316Z,11.10
2022-08-30T02:01:39.664Z,11.60
2022-08-30T02:04:11.487Z,11.20
2022-08-30T02:06:39.840Z,10.60
2022-08-30T02:09:08.195Z,11.20
2022-08-30T02:11:36.501Z,11.80
2022-08-30T02:14:06.393Z,11.10
2022-08-30T02:16:34.900Z,11.70
2022-08-30T02:19:03.464Z,11.50
2022-08-30T02:21:31.732Z,12.80
2022-08-30T02:23:59.906Z,12.80
2022-08-30T02:26:28.463Z,13.40
2022-08-30T02:28:59.001Z,12.80
2022-08-30T02:31:27.428Z,12.40
2022-08-30T02:33:55.859Z,12.60
2022-08-30T02:36:24.125Z,12.90
2022-08-30T02:38:52.829Z,12.40
2022-08-30T02:41:23.637Z,12.50
2022-08-30T02:43:52.559Z,12.60
2022-08-30T02:46:20.864Z,13.00
2022-08-30T02:48:49.122Z,12.30
2022-08-30T02:51:17.473Z,11.70
2022-08-30T02:53:46.093Z,12.70
2022-08-30T02:56:15.496Z,12.70
2022-08-30T02:58:45.054Z,11.90
2022-08-30T03:01:15.859Z,12.40
2022-08-30T03:03:45.896Z,11.60
2022-08-30T03:06:14.757Z,12.50
2022-08-30T03:08:43.049Z,12.00
2022-08-30T03:11:11.285Z,11.90
2022-08-30T03:13:39.763Z,12.40
2022-08-30T03:16:08.156Z,12.90
2022-08-30T03:18:36.535Z,11.80
2022-08-30T03:21:11.642Z,12.50
2022-08-30T03:23:40.872Z,12.70
2022-08-30T03:26:13.245Z,12.50
2022-08-30T03:28:44.534Z,12.50
2022-08-30T03:31:12.798Z,11.70
2022-08-30T03:33:41.020Z,12.10
2022-08-30T03:36:10.293Z,12.40
2022-08-30T03:38:39.069Z,11.70
2022-08-30T03:41:07.637Z,12.20
2022-08-30T03:43:37.575Z,12.00
2022-08-30T03:46:06.315Z,11.40
2022-08-30T03:48:34.561Z,11.80
2022-08-30T03:51:02.769Z,12.80
2022-08-30T03:53:34.421Z,12.00
2022-08-30T03:56:03.999Z,13.10
2022-08-30T03:58:32.240Z,13.30
2022-08-30T04:01:00.508Z,14.10
2022-08-30T04:03:29.485Z,13.30
2022-08-30T04:05:58.090Z,14.30
2022-08-30T04:08:27.244Z,13.80
2022-08-30T04:10:56.254Z,14.20
2022-08-30T04:13:25.228Z,14.80
2022-08-30T04:15:53.456Z,15.20
2022-08-30T04:18:22.629Z,14.90
2022-08-30T04:20:53.040Z,14.90
2022-08-30T04:23:21.645Z,14.50
2022-08-30T04:25:49.895Z,14.40
2022-08-30T04:28:18.053Z,14.70
2022-08-30T04:30:46.922Z,14.80
2022-08-30T04:33:16.669Z,15.50
2022-08-30T04:35:48.845Z,15.50
2022-08-30T04:38:18.514Z,15.90
2022-08-30T04:40:50.661Z,15.80
2022-08-30T04:43:18.921Z,16.30
2022-08-30T04:45:48.165Z,16.00
2022-08-30T04:48:18.641Z,16.10
2022-08-30T04:50:46.865Z,15.50
2022-08-30T04:53:16.016Z,15.80
2022-08-30T04:55:44.604Z,16.40
2022-08-30T04:58:13.863Z,14.90
2022-08-30T05:00:44.763Z,14.70
2022-08-30T05:03:13.141Z,13.50
2022-08-30T05:05:41.843Z,13.80
2022-08-30T05:08:13.544Z,12.00
2022-08-30T05:10:53.292Z,12.30
2022-08-30T05:13:34.977Z,12.20
2022-08-30T05:16:08.076Z,11.40
2022-08-30T05:18:37.490Z,12.20
2022-08-30T05:21:12.724Z,12.60
2022-08-30T05:23:42.381Z,11.60
2022-08-30T05:26:13.619Z,11.50
2022-08-30T05:28:42.016Z,11.50
2022-08-30T05:31:21.334Z,12.10
2022-08-30T05:33:51.856Z,10.70
2022-08-30T05:36:23.751Z,11.10
2022-08-30T05:38:53.455Z,12.00
2022-08-30T05:41:26.484Z,11.50
2022-08-30T05:43:59.334Z,10.80
2022-08-30T05:49:07.847Z,11.50
2022-08-30T05:51:40.216Z,12.00
2022-08-30T05:54:13.948Z,11.40
2022-08-30T05:56:45.371Z,10.40
2022-08-30T05:59:14.621Z,11.20
2022-08-30T06:01:58.836Z,10.30
2022-08-30T06:04:32.067Z,10.30
2022-08-30T06:07:00.320Z,10.00
2022-08-30T06:09:29.202Z,9.80
2022-08-30T06:11:57.784Z,10.00
2022-08-30T06:14:26.165Z,10.60
2022-08-30T06:16:54.415Z,10.70
2022-08-30T06:19:23.391Z,10.60
2022-08-30T06:21:51.911Z,9.50
2022-08-30T06:24:24.880Z,9.30
2022-08-30T06:27:06.070Z,9.30
2022-08-30T06:29:38.645Z,10.40
2022-08-30T06:32:07.932Z,11.20
2022-08-30T06:34:36.183Z,11.30
2022-08-30T06:37:04.484Z,11.00
2022-08-30T06:39:32.664Z,10.70
2022-08-30T06:42:00.939Z,11.30
2022-08-30T06:44:29.384Z,10.40
2022-08-30T06:46:59.071Z,11.00
2022-08-30T06:49:27.444Z,10.70
2022-08-30T06:51:55.648Z,11.20
2022-08-30T06:54:23.823Z,10.70
2022-08-30T06:56:59.267Z,11.70
2022-08-30T06:59:28.179Z,10.90
2022-08-30T07:01:57.528Z,11.40
2022-08-30T07:04:26.559Z,12.00
2022-08-30T07:06:54.742Z,12.20
2022-08-30T07:09:23.426Z,9.70
2022-08-30T07:11:53.535Z,9.30
2022-08-30T07:14:22.496Z,10.70
2022-08-30T07:16:50.959Z,10.00
2022-08-30T07:19:21.462Z,10.30
2022-08-30T07:21:50.589Z,9.30
2022-08-30T07:24:19.869Z,9.70
2022-08-30T07:26:52.072Z,9.50
2022-08-30T07:29:21.429Z,9.30
2022-08-30T07:31:50.111Z,9.00
2022-08-30T07:34:20.605Z,9.00
2022-08-30T07:36:50.716Z,8.70
2022-08-30T07:39:19.655Z,7.80
2022-08-30T07:41:48.956Z,8.30
2022-08-30T07:44:17.896Z,6.70
2022-08-30T07:46:46.193Z,6.70
2022-08-30T07:49:14.388Z,7.20
2022-08-30T07:51:42.837Z,7.90
2022-08-30T07:54:11.208Z,9.20
2022-08-30T07:56:39.985Z,9.70
2022-08-30T07:59:08.192Z,9.30
2022-08-30T08:01:36.490Z,9.40
2022-08-30T08:04:04.693Z,8.80
2022-08-30T08:06:34.885Z,7.70
2022-08-30T08:09:03.956Z,7.60
2022-08-30T08:11:34.476Z,7.80
2022-08-30T08:14:04.946Z,9.10
2022-08-30T08:16:35.517Z,7.60
2022-08-30T08:19:09.360Z,7.40
2022-08-30T08:21:38.006Z,7.10
2022-08-30T08:24:07.441Z,8.00
2022-08-30T08:26:37.107Z,6.60
2022-08-30T08:29:08.021Z,6.80
2022-08-30T08:31:37.635Z,7.30
2022-08-30T08:34:06.483Z,7.50
2022-08-30T08:36:36.629Z,7.40
2022-08-30T08:39:08.402Z,7.70
2022-08-30T08:41:51.682Z,7.80
2022-08-30T08:44:44.567Z,8.70
2022-08-30T08:47:20.704Z,8.30
2022-08-30T08:49:53.014Z,9.50
2022-08-30T08:52:55.518Z,8.80
2022-08-30T08:55:24.743Z,9.60
2022-08-30T08:57:52.958Z,7.50
2022-08-30T09:00:21.308Z,9.70
2022-08-30T09:03:04.454Z,8.60
2022-08-30T09:05:40.144Z,7.90
2022-08-30T09:08:14.680Z,7.20
2022-08-30T09:11:05.497Z,7.70
2022-08-30T09:13:33.979Z,7.40
2022-08-30T09:16:03.099Z,7.90
2022-08-30T09:18:51.270Z,8.00
2022-08-30T09:21:26.580Z,9.20
2022-08-30T09:26:38.012Z,7.80
2022-08-30T09:29:17.849Z,8.50
2022-08-30T09:32:10.148Z,8.20
2022-08-30T09:34:44.247Z,8.20
2022-08-30T09:37:31.111Z,8.40
2022-08-30T09:40:00.218Z,8.10
2022-08-30T09:42:31.105Z,8.00
2022-08-30T09:45:11.793Z,8.20
2022-08-30T09:47:43.749Z,8.00
2022-08-30T09:50:16.514Z,9.80
2022-08-30T09:53:10.560Z,8.70
2022-08-30T09:55:53.831Z,9.10
2022-08-30T09:58:42.914Z,9.80
2022-08-30T10:01:30.750Z,9.40
2022-08-30T10:04:27.159Z,7.30
2022-08-30T10:07:40.674Z,8.10
2022-08-30T10:10:28.297Z,10.10
2022-08-30T10:13:34.115Z,9.00
2022-08-30T10:16:13.852Z,8.00
2022-08-30T10:18:59.898Z,8.70
2022-08-30T10:21:58.357Z,8.60
2022-08-30T10:24:43.965Z,8.50
2022-08-30T10:27:23.261Z,8.10
2022-08-30T10:30:10.460Z,8.40
2022-08-30T10:32:44.737Z,8.00
2022-08-30T10:35:38.661Z,9.00
2022-08-30T10:38:26.879Z,9.00
2022-08-30T10:41:45.696Z,9.00
2022-08-30T10:44:32.083Z,8.50
2022-08-30T10:47:18.517Z,8.70
2022-08-30T10:50:03.770Z,8.90
2022-08-30T10:52:53.086Z,7.90
2022-08-30T10:55:30.527Z,8.30
2022-08-30T10:58:06.617Z,8.20
2022-08-30T11:01:07.660Z,8.20
2022-08-30T11:04:08.292Z,8.50
2022-08-30T11:07:15.790Z,8.40
2022-08-30T11:10:21.545Z,8.90
2022-08-30T11:13:25.883Z,8.50
2022-08-30T11:16:20.300Z,8.00
2022-08-30T11:18:57.971Z,8.50
2022-08-30T11:21:38.520Z,7.80
2022-08-30T11:24:27.221Z,7.80
2022-08-30T11:27:01.949Z,8.40
2022-08-30T11:29:44.335Z,8.10
2022-08-30T11:32:12.382Z,8.00
2022-08-30T11:34:47.199Z,8.20
2022-08-30T11:37:39.635Z,7.20
2022-08-30T11:40:22.843Z,7.10
2022-08-30T11:42:54.177Z,8.10
2022-08-30T11:45:22.227Z,7.40
2022-08-30T11:48:10.222Z,7.50
2022-08-30T11:51:32.027Z,8.50
2022-08-30T11:54:32.644Z,8.40
2022-08-30T11:57:28.175Z,8.20
2022-08-30T12:00:28.650Z,8.50
2022-08-30T12:03:03.798Z,8.60
2022-08-30T12:05:38.632Z,8.60
2022-08-30T12:08:27.927Z,8.90
2022-08-30T12:11:02.339Z,6.50
2022-08-30T12:13:39.090Z,6.40
2022-08-30T12:16:09.511Z,5.40
2022-08-30T12:18:49.182Z,5.70
2022-08-30T12:21:20.224Z,6.10
2022-08-30T12:24:18.873Z,6.40
2022-08-30T12:26:51.385Z,5.80
2022-08-30T12:32:03.379Z,5.00
2022-08-30T12:34:50.768Z,3.90
2022-08-30T12:37:24.852Z,4.10
2022-08-30T12:40:07.235Z,3.50
2022-08-30T12:42:41.321Z,3.10
2022-08-30T12:45:18.648Z,2.50
2022-08-30T12:48:01.776Z,2.30
2022-08-30T12:50:43.583Z,2.00
2022-08-30T12:53:14.383Z,2.30
2022-08-30T12:55:54.379Z,2.30
2022-08-30T12:58:34.490Z,1.80
2022-08-30T13:01:37.127Z,2.30
2022-08-30T13:04:23.356Z,2.50
2022-08-30T13:07:02.432Z,2.70
2022-08-30T13:09:38.263Z,3.10
2022-08-30T13:12:31.518Z,3.00
2022-08-30T13:15:28.073Z,3.10
2022-08-30T13:18:26.778Z,3.40
2022-08-30T13:21:23.048Z,3.50
2022-08-30T13:24:06.288Z,3.00
2022-08-30T13:26:39.936Z,3.30
2022-08-30T13:29:17.967Z,3.70
2022-08-30T13:31:46.732Z,3.30
2022-08-30T13:34:19.281Z,3.20
2022-08-30T13:36:55.979Z,3.70
2022-08-30T13:39:25.133Z,3.10
2022-08-30T13:41:54.795Z,4.00
2022-08-30T13:44:43.047Z,4.40
2022-08-30T13:50:01.399Z,3.90
2022-08-30T13:52:29.675Z,4.40
2022-08-30T13:54:59.383Z,4.70
2022-08-30T14:00:21.913Z,4.80
2022-08-30T14:02:55.154Z,4.20
2022-08-30T14:05:49.240Z,4.20
2022-08-30T14:08:45.617Z,4.10
2022-08-30T14:11:18.938Z,4.00
2022-08-30T14:16:41.392Z,4.80
2022-08-30T14:19:12.339Z,5.00
2022-08-30T14:21:40.837Z,5.00
2022-08-30T14:24:09.365Z,4.80
2022-08-30T14:26:45.786Z,5.00
2022-08-30T14:29:21.919Z,4.80
2022-08-30T14:31:50.320Z,4.40
2022-08-30T14:34:19.027Z,4.30
2022-08-30T14:36:47.315Z,4.60
2022-08-30T14:39:19.989Z,5.40
2022-08-30T14:41:52.508Z,5.60
2022-08-30T14:44:22.580Z,5.10
2022-08-30T14:46:51.015Z,4.90
2022-08-30T14:49:20.092Z,5.20
2022-08-30T14:51:49.088Z,4.80
2022-08-30T14:54:25.333Z,4.80
2022-08-30T14:56:55.436Z,4.70
2022-08-30T14:59:25.597Z,5.50
2022-08-30T15:01:54.059Z,5.60
2022-08-30T15:04:22.835Z,4.90
2022-08-30T15:06:51.858Z,5.20
2022-08-30T15:09:24.525Z,5.70
2022-08-30T15:14:29.219Z,4.70
2022-08-30T15:17:02.618Z,5.50
2022-08-30T15:19:31.943Z,4.90
2022-08-30T15:22:04.431Z,5.50
2022-08-30T15:24:33.433Z,5.10
2022-08-30T15:27:02.716Z,4.90
2022-08-30T15:29:31.857Z,5.30
2022-08-30T15:32:01.964Z,5.40
2022-08-30T15:34:31.676Z,5.90
2022-08-30T15:37:00.330Z,7.30
2022-08-30T15:39:29.232Z,5.70
2022-08-30T15:42:01.256Z,6.60
2022-08-30T15:44:31.632Z,6.00
2022-08-30T15:47:00.058Z,6.40
2022-08-30T15:49:29.095Z,6.40
2022-08-30T15:52:01.762Z,5.90
2022-08-30T15:54:30.559Z,6.20
2022-08-30T15:57:01.592Z,5.60
2022-08-30T15:59:31.751Z,5.50
2022-08-30T16:02:00.765Z,6.00
2022-08-30T16:04:29.862Z,6.00
2022-08-30T16:06:58.108Z,6.00
2022-08-30T16:09:30.115Z,5.90
2022-08-30T16:12:04.642Z,5.90
2022-08-30T16:14:34.407Z,5.70
2022-08-30T16:17:03.568Z,6.10
2022-08-30T16:19:33.195Z,6.50
2022-08-30T16:22:02.052Z,6.20
2022-08-30T16:24:30.280Z,5.40
2022-08-30T16:26:58.543Z,5.30
2022-08-30T16:29:26.921Z,6.30
2022-08-30T16:31:56.673Z,5.70
2022-08-30T16:34:26.009Z,6.00
2022-08-30T16:36:54.209Z,6.20
2022-08-30T16:39:22.765Z,6.10
2022-08-30T16:41:50.947Z,6.30
2022-08-30T16:44:19.347Z,6.30
2022-08-30T16:46:52.801Z,5.00
2022-08-30T16:49:25.581Z,5.70
2022-08-30T16:51:54.629Z,5.80
2022-08-30T16:54:23.687Z,5.40
2022-08-30T16:56:51.921Z,5.30
2022-08-30T16:59:20.127Z,4.90
2022-08-30T17:01:49.412Z,5.50
2022-08-30T17:07:06.722Z,5.80
2022-08-30T17:09:41.768Z,6.00
2022-08-30T17:12:09.955Z,5.80
2022-08-30T17:14:38.510Z,6.10
2022-08-30T17:17:07.240Z,6.10
2022-08-30T17:19:39.965Z,5.90
2022-08-30T17:22:12.147Z,6.00
2022-08-30T17:24:41.498Z,6.10
2022-08-30T17:27:12.003Z,6.40
2022-08-30T17:29:40.193Z,6.10
2022-08-30T17:32:08.419Z,5.50
2022-08-30T17:34:37.286Z,6.20
2022-08-30T17:37:05.489Z,5.60
2022-08-30T17:39:34.510Z,5.90
2022-08-30T17:42:05.270Z,5.60
2022-08-30T17:44:36.420Z,6.20
2022-08-30T17:47:04.881Z,6.80
2022-08-30T17:49:33.625Z,6.00
2022-08-30T17:52:03.179Z,6.90
2022-08-30T17:54:34.560Z,6.20
2022-08-30T17:59:55.423Z,6.90
2022-08-30T18:02:30.036Z,6.20
2022-08-30T18:05:00.251Z,7.00
2022-08-30T18:07:28.509Z,6.60
2022-08-30T18:09:56.936Z,6.50
2022-08-30T18:12:25.178Z,6.50
2022-08-30T18:14:55.227Z,7.20
2022-08-30T18:17:23.472Z,7.60
2022-08-30T18:19:51.856Z,6.80
2022-08-30T18:22:20.020Z,6.10
2022-08-30T18:24:48.459Z,6.50
2022-08-30T18:27:16.824Z,6.40
2022-08-30T18:29:45.165Z,5.80
2022-08-30T18:32:13.538Z,6.80
2022-08-30T18:34:42.989Z,6.90
2022-08-30T18:37:12.779Z,6.20
2022-08-30T18:39:42.660Z,5.20
2022-08-30T18:42:10.924Z,4.60
2022-08-30T18:44:40.248Z,4.80
2022-08-30T18:49:40.210Z,5.30
2022-08-30T18:52:11.123Z,5.50
2022-08-30T18:54:52.370Z,4.90
2022-08-30T18:57:23.442Z,5.20
2022-08-30T18:59:51.660Z,4.70
2022-08-30T19:02:20.729Z,4.60
2022-08-30T19:04:49.273Z,4.10
2022-08-30T19:07:19.522Z,4.40
2022-08-30T19:09:48.253Z,5.20
2022-08-30T19:12:16.600Z,4.70
2022-08-30T19:14:44.983Z,4.70
2022-08-30T19:17:14.815Z,4.60
2022-08-30T19:19:48.607Z,4.20
2022-08-30T19:22:21.756Z,4.10
2022-08-30T19:24:51.448Z,4.70
2022-08-30T19:27:37.773Z,4.10
2022-08-30T19:30:14.276Z,4.80
2022-08-30T19:32:47.198Z,4.50
2022-08-30T19:35:15.811Z,4.90
2022-08-30T19:37:46.344Z,6.60
2022-08-30T19:40:17.817Z,7.70
2022-08-30T19:42:46.691Z,7.80
2022-08-30T19:45:18.504Z,9.40
2022-08-30T19:47:47.839Z,11.50
2022-08-30T19:50:17.841Z,13.00
2022-08-30T19:52:52.759Z,11.40
2022-08-30T19:55:30.147Z,9.20
2022-08-30T19:58:00.164Z,8.40
2022-08-30T20:00:31.226Z,7.40
2022-08-30T20:03:01.236Z,7.10
2022-08-30T20:05:32.007Z,6.20
2022-08-30T20:08:00.334Z,6.60
2022-08-30T20:10:28.686Z,7.10
2022-08-30T20:12:56.985Z,7.80
2022-08-30T20:15:26.445Z,6.60
2022-08-30T20:18:13.483Z,7.60
2022-08-30T20:20:48.062Z,7.40
2022-08-30T20:23:22.705Z,7.20
2022-08-30T20:24:23.330Z,5.60
2022-08-30T20:24:26.862Z,6.10
2022-08-30T20:25:55.593Z,8.20
2022-08-30T20:28:25.354Z,7.50
2022-08-30T20:30:56.014Z,8.10
2022-08-30T20:33:25.849Z,7.90
2022-08-30T20:35:54.113Z,8.10
2022-08-30T20:38:22.539Z,7.60
2022-08-30T20:40:56.560Z,7.80
2022-08-30T20:43:28.912Z,7.90
2022-08-30T20:45:57.210Z,8.20
2022-08-30T20:48:28.603Z,8.20
2022-08-30T20:50:56.833Z,8.70
2022-08-30T20:53:25.043Z,8.40
2022-08-30T20:55:53.212Z,8.50
2022-08-30T20:58:22.452Z,8.20
2022-08-30T21:00:54.833Z,9.40
2022-08-30T21:03:27.578Z,8.90
2022-08-30T21:05:56.993Z,7.80
2022-08-30T21:08:25.725Z,8.00
2022-08-30T21:10:55.421Z,9.20
2022-08-30T21:13:23.850Z,8.50
2022-08-30T21:15:55.040Z,7.70
2022-08-30T21:18:32.812Z,7.60
2022-08-30T21:21:15.090Z,8.00
2022-08-30T21:23:43.292Z,7.00
2022-08-30T21:26:11.477Z,7.20
2022-08-30T21:28:40.446Z,7.10
2022-08-30T21:31:15.358Z,7.20
2022-08-30T21:33:44.173Z,6.70
2022-08-30T21:36:30.823Z,7.00
2022-08-30T21:39:00.683Z,7.20
2022-08-30T21:41:31.522Z,7.00
2022-08-30T21:44:03.814Z,7.20
2022-08-30T21:46:34.274Z,7.40
2022-08-30T21:49:06.444Z,7.60
2022-08-30T21:51:41.193Z,8.00
2022-08-30T21:54:11.104Z,8.40
2022-08-30T21:56:42.441Z,8.10
2022-08-30T21:59:12.223Z,8.70
2022-08-30T22:01:43.416Z,7.50
2022-08-30T22:04:13.275Z,8.90
2022-08-30T22:06:48.248Z,8.80
2022-08-30T22:09:21.109Z,8.80
2022-08-30T22:11:51.084Z,9.00
2022-08-30T22:14:22.049Z,8.30
2022-08-30T22:16:50.822Z,9.20
2022-08-30T22:19:23.154Z,9.60
2022-08-30T22:21:53.880Z,9.90
2022-08-30T22:24:32.638Z,12.00
2022-08-30T22:27:03.315Z,10.50
2022-08-30T22:29:31.856Z,9.80
2022-08-30T22:32:00.494Z,9.30
2022-08-30T22:34:28.878Z,9.70
2022-08-30T22:36:57.124Z,8.60
2022-08-30T22:39:26.337Z,9.60
2022-08-30T22:41:54.650Z,9.50
2022-08-30T22:44:22.828Z,10.40
2022-08-30T22:46:51.642Z,10.40
2022-08-30T22:49:20.615Z,11.60
2022-08-30T22:51:48.792Z,10.20
2022-08-30T22:54:17.625Z,10.60
2022-08-30T22:56:46.375Z,10.60
2022-08-30T22:59:15.197Z,10.40
2022-08-30T23:01:43.754Z,10.30
2022-08-30T23:04:12.862Z,9.50
2022-08-30T23:06:41.748Z,11.00
2022-08-30T23:09:19.036Z,9.60
2022-08-30T23:11:47.381Z,10.40
2022-08-30T23:14:15.678Z,10.90
2022-08-30T23:16:43.904Z,10.40
2022-08-30T23:19:12.572Z,10.10
2022-08-30T23:21:40.761Z,11.00
2022-08-30T23:24:27.748Z,10.10
2022-08-30T23:27:14.588Z,10.10
2022-08-30T23:30:01.468Z,12.10
2022-08-30T23:32:48.247Z,10.30
2022-08-30T23:35:34.995Z,10.50
2022-08-30T23:38:24.012Z,9.90
2022-08-30T23:41:10.520Z,10.20
2022-08-30T23:43:57.318Z,10.20
2022-08-30T23:46:44.137Z,10.20
2022-08-30T23:49:30.924Z,10.40
2022-08-30T23:52:17.692Z,10.90
2022-08-30T23:55:04.596Z,9.60
2022-08-30T23:57:51.286Z,10.70
